createdAt,value
2022-10-26T00:00:34.670Z,5.80
2022-10-26T00:03:06.206Z,6.10
2022-10-26T00:05:37.705Z,6.10
2022-10-26T00:08:09.350Z,5.90
2022-10-26T00:10:41.029Z,5.70
2022-10-26T00:13:13.766Z,5.50
2022-10-26T00:15:45.516Z,5.70
2022-10-26T00:20:46.617Z,5.70
2022-10-26T00:23:18.203Z,5.90
2022-10-26T00:25:56.823Z,5.40
2022-10-26T00:28:28.318Z,4.80
2022-10-26T00:31:03.868Z,5.40
2022-10-26T00:33:35.407Z,5.80
2022-10-26T00:36:09.439Z,5.70
2022-10-26T00:38:46.280Z,4.80
2022-10-26T00:41:19.171Z,5.00
2022-10-26T00:43:50.513Z,5.70
2022-10-26T00:46:23.592Z,5.10
2022-10-26T00:48:56.605Z,5.80
2022-10-26T00:51:33.222Z,6.30
2022-10-26T00:54:07.138Z,6.30
2022-10-26T00:56:38.538Z,6.70
2022-10-26T00:59:11.306Z,6.00
2022-10-26T01:01:44.727Z,6.20
2022-10-26T01:04:17.201Z,6.50
2022-10-26T01:06:48.672Z,6.80
2022-10-26T01:11:50.033Z,7.20
2022-10-26T01:14:21.506Z,7.00
2022-10-26T01:16:58.994Z,7.80
2022-10-26T01:20:14.555Z,6.90
2022-10-26T01:22:48.335Z,7.10
2022-10-26T01:25:28.344Z,6.70
2022-10-26T01:27:59.746Z,7.00
2022-10-26T01:30:34.591Z,7.50
2022-10-26T01:33:30.324Z,7.10
2022-10-26T01:36:07.854Z,6.70
2022-10-26T01:38:54.701Z,6.50
2022-10-26T01:41:27.826Z,6.70
2022-10-26T01:44:00.547Z,7.10
2022-10-26T01:46:33.914Z,6.90
2022-10-26T01:49:08.005Z,5.90
2022-10-26T01:51:39.600Z,7.20
2022-10-26T01:54:10.951Z,6.40
2022-10-26T01:56:43.586Z,6.60
2022-10-26T01:59:23.035Z,7.00
2022-10-26T02:02:23.931Z,7.60
2022-10-26T02:05:03.986Z,7.50
2022-10-26T02:07:38.897Z,6.30
2022-10-26T02:10:12.310Z,6.80
2022-10-26T02:12:47.071Z,7.20
2022-10-26T02:15:21.197Z,7.40
2022-10-26T02:17:55.106Z,6.30
2022-10-26T02:20:27.181Z,7.00
2022-10-26T02:22:58.728Z,7.30
2022-10-26T02:25:31.677Z,7.30
2022-10-26T02:28:04.330Z,7.20
2022-10-26T02:30:36.141Z,7.10
2022-10-26T02:35:38.721Z,7.30
2022-10-26T02:38:11.755Z,6.90
2022-10-26T02:40:43.322Z,6.90
2022-10-26T02:43:16.079Z,6.70
2022-10-26T02:45:49.423Z,6.80
2022-10-26T02:48:20.875Z,7.10
2022-10-26T02:50:55.349Z,6.70
2022-10-26T02:53:29.178Z,7.10
2022-10-26T02:56:01.249Z,6.60
2022-10-26T02:58:33.856Z,6.70
2022-10-26T03:01:05.383Z,6.50
2022-10-26T03:03:37.052Z,6.40
2022-10-26T03:06:09.080Z,7.10
2022-10-26T03:08:40.789Z,7.00
2022-10-26T03:11:12.152Z,6.50
2022-10-26T03:13:43.606Z,5.20
2022-10-26T03:16:14.970Z,6.70
2022-10-26T03:18:46.349Z,7.30
2022-10-26T03:21:17.695Z,6.80
2022-10-26T03:23:50.833Z,6.00
2022-10-26T03:26:22.285Z,6.40
2022-10-26T03:28:53.655Z,6.80
2022-10-26T03:31:25.218Z,7.10
2022-10-26T03:33:56.700Z,6.20
2022-10-26T03:36:28.272Z,6.20
2022-10-26T03:38:59.708Z,6.10
2022-10-26T03:41:31.248Z,6.40
2022-10-26T03:44:02.667Z,6.00
2022-10-26T03:46:34.086Z,7.40
2022-10-26T03:49:05.719Z,6.20
2022-10-26T03:51:37.079Z,6.00
2022-10-26T03:54:08.856Z,5.90
2022-10-26T03:59:10.034Z,5.40
2022-10-26T04:01:41.410Z,6.50
2022-10-26T04:04:13.110Z,5.90
2022-10-26T04:09:20.884Z,6.50
2022-10-26T04:11:52.241Z,6.70
2022-10-26T04:14:23.721Z,5.60
2022-10-26T04:16:55.166Z,6.10
2022-10-26T04:19:27.014Z,5.60
2022-10-26T04:24:28.819Z,5.10
2022-10-26T04:29:30.273Z,5.70
2022-10-26T04:32:01.856Z,5.00
2022-10-26T04:34:33.287Z,5.80
2022-10-26T04:37:04.664Z,5.80
2022-10-26T04:39:36.272Z,5.30
2022-10-26T04:42:07.752Z,5.50
2022-10-26T04:44:39.265Z,5.40
2022-10-26T04:47:10.827Z,5.40
2022-10-26T04:49:42.192Z,5.00
2022-10-26T04:52:13.542Z,4.80
2022-10-26T04:54:45.088Z,4.50
2022-10-26T04:57:16.748Z,4.80
2022-10-26T04:59:48.170Z,4.30
2022-10-26T05:02:21.427Z,4.60
2022-10-26T05:04:53.126Z,4.20
2022-10-26T05:07:24.585Z,4.50
2022-10-26T05:09:58.608Z,4.80
2022-10-26T05:12:29.979Z,4.60
2022-10-26T05:15:03.950Z,4.60
2022-10-26T05:17:37.848Z,4.20
2022-10-26T05:22:44.694Z,3.90
2022-10-26T05:25:16.319Z,4.30
2022-10-26T05:27:47.741Z,3.10
2022-10-26T05:30:19.440Z,3.40
2022-10-26T05:32:56.181Z,3.90
2022-10-26T05:35:27.697Z,3.50
2022-10-26T05:37:59.027Z,3.30
2022-10-26T05:40:30.605Z,3.30
2022-10-26T05:43:04.235Z,3.00
2022-10-26T05:45:35.691Z,3.40
2022-10-26T05:48:08.399Z,3.30
2022-10-26T05:50:39.897Z,3.70
2022-10-26T05:53:11.274Z,4.00
2022-10-26T05:55:44.736Z,3.40
2022-10-26T05:58:17.142Z,3.70
2022-10-26T06:00:56.921Z,2.70
2022-10-26T06:03:34.627Z,4.10
2022-10-26T06:06:08.764Z,3.30
2022-10-26T06:08:43.258Z,3.20
2022-10-26T06:11:16.501Z,3.40
2022-10-26T06:13:49.531Z,3.40
2022-10-26T06:16:30.958Z,3.60
2022-10-26T06:19:07.711Z,4.40
2022-10-26T06:21:46.765Z,3.50
2022-10-26T06:24:21.740Z,4.00
2022-10-26T06:26:55.523Z,3.60
2022-10-26T06:29:38.212Z,3.50
2022-10-26T06:32:11.175Z,3.70
2022-10-26T06:34:47.205Z,3.60
2022-10-26T06:37:20.671Z,3.80
2022-10-26T06:39:54.812Z,3.70
2022-10-26T06:42:27.838Z,3.80
2022-10-26T06:45:03.554Z,3.80
2022-10-26T06:47:39.309Z,3.70
2022-10-26T06:50:25.269Z,5.10
2022-10-26T06:53:05.195Z,3.20
2022-10-26T06:55:41.995Z,4.00
2022-10-26T06:58:15.585Z,3.80
2022-10-26T07:00:56.411Z,3.60
2022-10-26T07:03:30.697Z,4.20
2022-10-26T07:06:03.081Z,4.00
2022-10-26T07:08:37.766Z,9.20
2022-10-26T07:11:10.487Z,4.20
2022-10-26T07:13:44.226Z,3.70
2022-10-26T07:16:19.548Z,3.60
2022-10-26T07:18:52.455Z,4.30
2022-10-26T07:21:24.971Z,4.10
2022-10-26T07:23:57.851Z,3.90
2022-10-26T07:26:33.563Z,4.30
2022-10-26T07:29:07.217Z,3.90
2022-10-26T07:31:40.342Z,4.30
2022-10-26T07:34:14.545Z,4.20
2022-10-26T07:36:47.790Z,3.90
2022-10-26T07:39:20.992Z,4.20
2022-10-26T07:41:54.060Z,4.40
2022-10-26T07:44:28.039Z,4.30
2022-10-26T07:47:00.720Z,4.40
2022-10-26T07:49:34.939Z,4.30
2022-10-26T07:52:08.586Z,4.30
2022-10-26T07:54:41.230Z,3.90
2022-10-26T07:57:13.897Z,4.60
2022-10-26T07:59:46.470Z,3.70
2022-10-26T08:02:21.472Z,4.50
2022-10-26T08:04:54.400Z,4.40
2022-10-26T08:07:27.797Z,6.20
2022-10-26T08:10:02.704Z,4.50
2022-10-26T08:12:35.535Z,4.20
2022-10-26T08:15:09.893Z,5.10
2022-10-26T08:17:42.396Z,4.40
2022-10-26T08:20:18.007Z,3.60
2022-10-26T08:22:50.142Z,4.70
2022-10-26T08:25:22.135Z,4.90
2022-10-26T08:27:54.482Z,3.60
2022-10-26T08:30:26.647Z,4.40
2022-10-26T08:33:03.063Z,3.70
2022-10-26T08:35:34.655Z,3.80
2022-10-26T08:38:06.137Z,4.20
2022-10-26T08:40:40.080Z,3.90
2022-10-26T08:43:16.167Z,4.20
2022-10-26T08:45:52.464Z,12.30
2022-10-26T08:48:27.429Z,10.40
2022-10-26T08:51:01.766Z,4.70
2022-10-26T08:53:35.649Z,7.60
2022-10-26T08:56:12.609Z,5.40
2022-10-26T08:58:46.405Z,5.90
2022-10-26T09:01:18.010Z,5.70
2022-10-26T09:06:27.716Z,5.20
2022-10-26T09:09:07.283Z,6.80
2022-10-26T09:11:51.552Z,9.30
2022-10-26T09:14:25.566Z,7.90
2022-10-26T09:17:02.780Z,7.80
2022-10-26T09:20:03.689Z,8.80
2022-10-26T09:22:38.140Z,9.10
2022-10-26T09:25:14.765Z,9.80
2022-10-26T09:27:48.901Z,10.30
2022-10-26T09:30:21.990Z,10.80
2022-10-26T09:32:54.037Z,10.40
2022-10-26T09:35:26.715Z,11.70
2022-10-26T09:37:59.120Z,12.00
2022-10-26T09:40:34.481Z,12.30
2022-10-26T09:43:08.842Z,12.80
2022-10-26T09:45:40.994Z,13.20
2022-10-26T09:48:15.777Z,13.90
2022-10-26T09:50:49.032Z,15.20
2022-10-26T09:53:21.200Z,16.90
2022-10-26T09:55:55.234Z,19.20
2022-10-26T09:58:29.386Z,18.40
2022-10-26T10:01:05.219Z,19.10
2022-10-26T10:03:37.454Z,21.10
2022-10-26T10:06:20.046Z,22.40
2022-10-26T10:09:11.445Z,22.30
2022-10-26T10:11:44.996Z,23.50
2022-10-26T10:14:19.288Z,23.20
2022-10-26T10:16:55.857Z,25.40
2022-10-26T10:19:28.587Z,24.70
2022-10-26T10:22:01.944Z,26.10
2022-10-26T10:24:34.437Z,27.00
2022-10-26T10:27:07.989Z,29.50
2022-10-26T10:29:43.606Z,26.10
2022-10-26T10:32:21.433Z,25.90
2022-10-26T10:34:53.236Z,27.10
2022-10-26T10:37:27.760Z,25.50
2022-10-26T10:40:01.450Z,27.90
2022-10-26T10:42:36.117Z,26.30
2022-10-26T10:45:08.532Z,23.70
2022-10-26T10:50:21.165Z,21.10
2022-10-26T10:52:53.503Z,20.70
2022-10-26T10:55:25.617Z,22.70
2022-10-26T10:58:09.859Z,19.90
2022-10-26T11:00:41.563Z,20.80
2022-10-26T11:03:32.819Z,20.60
2022-10-26T11:06:17.201Z,22.40
2022-10-26T11:08:52.069Z,19.00
2022-10-26T11:11:25.183Z,19.70
2022-10-26T11:13:59.018Z,19.80
2022-10-26T11:16:32.865Z,18.20
2022-10-26T11:19:07.760Z,18.00
2022-10-26T11:21:39.573Z,17.70
2022-10-26T11:24:16.320Z,17.50
2022-10-26T11:26:50.481Z,15.80
2022-10-26T11:29:27.316Z,14.30
2022-10-26T11:32:02.442Z,13.50
2022-10-26T11:34:36.378Z,13.50
2022-10-26T11:37:12.787Z,13.70
2022-10-26T11:39:47.711Z,12.80
2022-10-26T11:42:23.772Z,13.80
2022-10-26T11:44:57.271Z,12.00
2022-10-26T11:47:35.815Z,13.00
2022-10-26T11:50:16.292Z,12.20
2022-10-26T11:52:51.445Z,13.60
2022-10-26T11:55:23.203Z,13.60
2022-10-26T11:57:55.590Z,12.00
2022-10-26T12:00:27.400Z,12.70
2022-10-26T12:03:09.920Z,11.40
2022-10-26T12:05:47.396Z,12.00
2022-10-26T12:08:20.511Z,11.80
2022-10-26T12:10:55.307Z,10.60
2022-10-26T12:13:29.477Z,8.90
2022-10-26T12:16:04.263Z,9.10
2022-10-26T12:18:57.443Z,7.00
2022-10-26T12:21:31.158Z,7.30
2022-10-26T12:24:03.418Z,9.00
2022-10-26T12:26:55.503Z,7.00
2022-10-26T12:29:41.989Z,7.30
2022-10-26T12:32:51.336Z,7.00
2022-10-26T12:35:53.181Z,7.20
2022-10-26T12:39:06.510Z,7.80
2022-10-26T12:41:40.360Z,6.50
2022-10-26T12:44:34.566Z,6.70
2022-10-26T12:47:51.472Z,7.30
2022-10-26T12:50:26.061Z,7.40
2022-10-26T12:52:57.845Z,7.80
2022-10-26T12:56:01.773Z,8.10
2022-10-26T12:59:04.467Z,7.50
2022-10-26T13:02:14.509Z,8.50
2022-10-26T13:05:15.925Z,9.40
2022-10-26T13:07:47.653Z,9.00
2022-10-26T13:12:55.068Z,9.30
2022-10-26T13:15:34.340Z,10.10
2022-10-26T13:18:20.060Z,9.70
2022-10-26T13:21:02.666Z,9.70
2022-10-26T13:23:35.314Z,9.80
2022-10-26T13:26:09.566Z,10.50
2022-10-26T13:28:50.024Z,10.40
2022-10-26T13:31:57.868Z,9.20
2022-10-26T13:34:32.416Z,9.80
2022-10-26T13:37:23.985Z,9.50
2022-10-26T13:42:31.366Z,9.30
2022-10-26T13:45:07.234Z,8.70
2022-10-26T13:47:42.899Z,8.10
2022-10-26T13:50:18.254Z,7.80
2022-10-26T13:52:51.547Z,8.00
2022-10-26T13:55:25.475Z,7.80
2022-10-26T13:58:07.014Z,7.80
2022-10-26T14:00:38.584Z,8.20
2022-10-26T14:03:19.116Z,9.10
2022-10-26T14:05:51.270Z,9.10
2022-10-26T14:08:22.811Z,9.10
2022-10-26T14:10:57.481Z,8.10
2022-10-26T14:13:29.500Z,8.00
2022-10-26T14:16:00.875Z,7.90
2022-10-26T14:18:33.195Z,7.90
2022-10-26T14:21:05.174Z,8.80
2022-10-26T14:23:38.525Z,7.90
2022-10-26T14:26:20.391Z,8.70
2022-10-26T14:28:53.456Z,8.30
2022-10-26T14:31:27.614Z,8.90
2022-10-26T14:34:00.143Z,9.20
2022-10-26T14:36:33.380Z,8.30
2022-10-26T14:39:06.850Z,8.40
2022-10-26T14:44:17.735Z,8.70
2022-10-26T14:46:49.362Z,8.50
2022-10-26T14:49:23.082Z,8.60
2022-10-26T14:51:58.957Z,7.90
2022-10-26T14:54:32.382Z,7.60
2022-10-26T14:57:09.006Z,7.80
2022-10-26T14:59:40.368Z,7.30
2022-10-26T15:02:16.878Z,6.80
2022-10-26T15:05:01.271Z,6.50
2022-10-26T15:07:41.290Z,7.20
2022-10-26T15:10:42.967Z,7.30
2022-10-26T15:13:17.415Z,7.30
2022-10-26T15:15:49.953Z,7.40
2022-10-26T15:18:25.031Z,7.90
2022-10-26T15:20:56.656Z,6.70
2022-10-26T15:25:59.143Z,9.60
2022-10-26T15:28:33.338Z,10.00
2022-10-26T15:31:07.201Z,7.50
2022-10-26T15:33:38.909Z,7.20
2022-10-26T15:38:48.396Z,6.00
2022-10-26T15:41:30.218Z,6.10
2022-10-26T15:44:02.826Z,6.70
2022-10-26T15:46:35.700Z,7.00
2022-10-26T15:49:08.064Z,6.90
2022-10-26T15:51:39.703Z,6.70
2022-10-26T15:54:12.152Z,7.00
2022-10-26T15:56:45.147Z,6.80
2022-10-26T15:59:18.953Z,7.60
2022-10-26T16:01:52.691Z,7.90
2022-10-26T16:04:24.389Z,8.20
2022-10-26T16:09:25.839Z,8.00
2022-10-26T16:11:57.284Z,7.30
2022-10-26T16:14:33.359Z,7.70
2022-10-26T16:17:06.550Z,6.70
2022-10-26T16:19:38.108Z,7.40
2022-10-26T16:24:46.770Z,7.00
2022-10-26T16:27:19.012Z,8.10
2022-10-26T16:29:50.454Z,7.40
2022-10-26T16:32:21.880Z,7.80
2022-10-26T16:34:53.556Z,7.50
2022-10-26T16:39:55.219Z,6.40
2022-10-26T16:42:28.702Z,5.60
2022-10-26T16:45:02.714Z,6.10
2022-10-26T16:47:38.041Z,6.40
2022-10-26T16:50:11.491Z,6.90
2022-10-26T16:52:43.737Z,6.00
2022-10-26T16:55:15.837Z,5.70
2022-10-26T17:00:18.289Z,6.20
2022-10-26T17:02:49.886Z,5.70
2022-10-26T17:05:22.195Z,6.60
2022-10-26T17:07:53.794Z,6.50
2022-10-26T17:10:26.848Z,6.10
2022-10-26T17:12:59.203Z,5.80
2022-10-26T17:15:30.639Z,6.30
2022-10-26T17:18:02.499Z,6.30
2022-10-26T17:20:34.221Z,7.00
2022-10-26T17:23:05.914Z,6.50
2022-10-26T17:25:38.732Z,6.50
2022-10-26T17:28:10.897Z,6.50
2022-10-26T17:30:42.753Z,6.30
2022-10-26T17:33:14.542Z,6.10
2022-10-26T17:35:46.462Z,6.50
2022-10-26T17:38:18.165Z,5.90
2022-10-26T17:43:20.011Z,5.50
2022-10-26T17:48:28.850Z,5.80
2022-10-26T17:51:02.809Z,6.00
2022-10-26T17:53:34.303Z,5.50
2022-10-26T17:56:07.745Z,5.90
2022-10-26T17:58:39.496Z,5.30
2022-10-26T18:03:42.156Z,6.40
2022-10-26T18:06:13.726Z,5.00
2022-10-26T18:08:45.129Z,5.40
2022-10-26T18:11:20.550Z,5.70
2022-10-26T18:13:54.351Z,5.20
2022-10-26T18:16:26.326Z,5.50
2022-10-26T18:19:02.364Z,6.10
2022-10-26T18:21:37.771Z,5.50
2022-10-26T18:24:11.182Z,6.40
2022-10-26T18:26:42.822Z,5.80
2022-10-26T18:29:15.215Z,5.80
2022-10-26T18:31:46.810Z,6.20
2022-10-26T18:34:18.589Z,5.80
2022-10-26T18:39:20.190Z,6.50
2022-10-26T18:44:22.988Z,7.60
2022-10-26T18:46:54.626Z,7.50
2022-10-26T18:49:26.867Z,8.50
2022-10-26T18:51:58.599Z,8.30
2022-10-26T18:54:31.076Z,8.80
2022-10-26T18:57:03.541Z,9.50
2022-10-26T18:59:35.113Z,8.50
2022-10-26T19:07:08.203Z,9.80
2022-10-26T19:09:39.843Z,10.30
2022-10-26T19:12:11.922Z,10.20
2022-10-26T19:14:43.375Z,9.60
2022-10-26T19:19:44.661Z,10.10
2022-10-26T19:22:16.083Z,10.00
2022-10-26T19:24:48.534Z,10.40
2022-10-26T19:27:20.230Z,10.60
2022-10-26T19:29:52.104Z,11.10
2022-10-26T19:32:23.718Z,10.50
2022-10-26T19:34:55.213Z,11.80
2022-10-26T19:37:28.490Z,9.40
2022-10-26T19:40:01.359Z,10.80
2022-10-26T19:42:32.989Z,11.40
2022-10-26T19:45:04.617Z,10.20
2022-10-26T19:47:36.165Z,11.20
2022-10-26T19:50:08.830Z,11.60
2022-10-26T19:52:41.644Z,11.90
2022-10-26T19:55:13.825Z,11.60
2022-10-26T19:57:46.304Z,10.70
2022-10-26T20:00:18.762Z,10.30
2022-10-26T20:02:50.436Z,10.80
2022-10-26T20:05:22.270Z,10.00
2022-10-26T20:07:53.644Z,11.30
2022-10-26T20:10:25.280Z,11.00
2022-10-26T20:12:56.740Z,10.20
2022-10-26T20:15:28.256Z,9.80
2022-10-26T20:17:59.945Z,8.60
2022-10-26T20:20:33.904Z,9.70
2022-10-26T20:23:06.191Z,8.60
2022-10-26T20:25:38.383Z,10.00
2022-10-26T20:28:10.692Z,8.40
2022-10-26T20:30:42.367Z,7.90
2022-10-26T20:33:14.012Z,8.90
2022-10-26T20:35:45.563Z,8.30
2022-10-26T20:40:54.219Z,7.50
2022-10-26T20:43:26.955Z,8.70
2022-10-26T20:46:00.256Z,8.50
2022-10-26T20:48:33.001Z,8.20
2022-10-26T20:51:07.194Z,8.50
2022-10-26T20:53:39.670Z,8.20
2022-10-26T20:56:16.800Z,8.60
2022-10-26T20:58:48.891Z,8.30
2022-10-26T21:01:22.810Z,7.50
2022-10-26T21:03:54.785Z,7.20
2022-10-26T21:06:27.194Z,7.80
2022-10-26T21:11:29.012Z,6.90
2022-10-26T21:14:03.635Z,7.00
2022-10-26T21:16:35.509Z,7.10
2022-10-26T21:21:39.382Z,9.00
2022-10-26T21:26:41.577Z,7.20
2022-10-26T21:29:13.238Z,8.10
2022-10-26T21:31:45.156Z,7.70
2022-10-26T21:34:17.420Z,7.90
2022-10-26T21:36:49.431Z,7.30
2022-10-26T21:39:20.879Z,7.70
2022-10-26T21:44:35.616Z,7.70
2022-10-26T21:47:11.814Z,7.10
2022-10-26T21:49:43.450Z,7.40
2022-10-26T21:52:16.050Z,7.30
2022-10-26T21:54:47.877Z,7.80
2022-10-26T21:57:20.422Z,7.70
2022-10-26T21:59:51.998Z,7.90
2022-10-26T22:02:24.217Z,7.90
2022-10-26T22:04:55.837Z,8.40
2022-10-26T22:07:27.326Z,8.10
2022-10-26T22:10:10.242Z,9.00
2022-10-26T22:12:42.770Z,8.60
2022-10-26T22:15:15.372Z,7.60
2022-10-26T22:17:47.025Z,8.90
2022-10-26T22:20:18.796Z,8.00
2022-10-26T22:22:50.291Z,8.40
2022-10-26T22:25:21.730Z,9.10
2022-10-26T22:27:53.251Z,13.70
2022-10-26T22:30:25.567Z,12.10
2022-10-26T22:35:30.190Z,7.60
2022-10-26T22:38:01.752Z,6.50
2022-10-26T22:43:03.241Z,5.40
2022-10-26T22:45:34.773Z,5.40
2022-10-26T22:50:37.174Z,5.70
2022-10-26T22:53:09.303Z,4.90
2022-10-26T22:58:14.283Z,4.90
2022-10-26T23:03:16.132Z,4.80
2022-10-26T23:05:51.125Z,4.80
2022-10-26T23:08:22.853Z,5.30
2022-10-26T23:10:54.604Z,4.70
2022-10-26T23:13:26.247Z,5.10
2022-10-26T23:15:57.716Z,5.30
2022-10-26T23:18:29.648Z,5.10
2022-10-26T23:21:01.270Z,6.80
2022-10-26T23:23:33.203Z,8.10
2022-10-26T23:26:05.194Z,8.70
2022-10-26T23:28:36.960Z,7.80
2022-10-26T23:31:08.810Z,7.00
2022-10-26T23:33:40.548Z,5.60
2022-10-26T23:36:12.648Z,6.60
2022-10-26T23:38:44.386Z,5.10
2022-10-26T23:43:46.369Z,5.90
2022-10-26T23:46:17.984Z,5.60
2022-10-26T23:51:19.443Z,9.30
2022-10-26T23:53:51.165Z,8.70
2022-10-26T23:56:22.604Z,8.10
2022-10-26T23:58:54.733Z,7.30
